sensor_id;sensor_type;location;lat;lon;timestamp;P1;durP1;ratioP1;P2;durP2;ratioP2
45812;SDS011;31519;45.408;10.962;2023-06-04T00:01:57;7.07;;;4.20;;
45812;SDS011;31519;45.408;10.962;2023-06-04T00:04:25;5.57;;;4.03;;
45812;SDS011;31519;45.408;10.962;2023-06-04T00:06:54;7.40;;;4.80;;
45812;SDS011;31519;45.408;10.962;2023-06-04T00:09:22;7.60;;;4.82;;
45812;SDS011;31519;45.408;10.962;2023-06-04T00:11:50;9.27;;;4.40;;
45812;SDS011;31519;45.408;10.962;2023-06-04T00:14:18;8.00;;;4.07;;
45812;SDS011;31519;45.408;10.962;2023-06-04T00:16:46;11.30;;;3.90;;
45812;SDS011;31519;45.408;10.962;2023-06-04T00:19:15;7.05;;;4.10;;
45812;SDS011;31519;45.408;10.962;2023-06-04T00:21:43;6.57;;;4.20;;
45812;SDS011;31519;45.408;10.962;2023-06-04T00:24:12;6.40;;;3.65;;
45812;SDS011;31519;45.408;10.962;2023-06-04T00:26:40;4.60;;;4.10;;
45812;SDS011;31519;45.408;10.962;2023-06-04T00:29:08;6.10;;;4.00;;
45812;SDS011;31519;45.408;10.962;2023-06-04T00:31:37;5.43;;;3.67;;
45812;SDS011;31519;45.408;10.962;2023-06-04T00:34:05;10.32;;;4.50;;
45812;SDS011;31519;45.408;10.962;2023-06-04T00:36:33;7.90;;;5.22;;
45812;SDS011;31519;45.408;10.962;2023-06-04T00:39:01;6.47;;;4.43;;
45812;SDS011;31519;45.408;10.962;2023-06-04T00:41:30;11.52;;;4.05;;
45812;SDS011;31519;45.408;10.962;2023-06-04T00:43:59;9.93;;;4.68;;
45812;SDS011;31519;45.408;10.962;2023-06-04T00:46:29;8.32;;;4.28;;
45812;SDS011;31519;45.408;10.962;2023-06-04T00:48:58;8.57;;;4.22;;
45812;SDS011;31519;45.408;10.962;2023-06-04T00:51:27;6.78;;;4.28;;
45812;SDS011;31519;45.408;10.962;2023-06-04T00:53:58;7.65;;;5.53;;
45812;SDS011;31519;45.408;10.962;2023-06-04T00:56:27;11.00;;;7.25;;
45812;SDS011;31519;45.408;10.962;2023-06-04T00:58:56;13.60;;;7.70;;
45812;SDS011;31519;45.408;10.962;2023-06-04T01:04:05;16.08;;;8.95;;
45812;SDS011;31519;45.408;10.962;2023-06-04T01:06:43;14.80;;;8.95;;
45812;SDS011;31519;45.408;10.962;2023-06-04T01:09:12;13.43;;;8.52;;
45812;SDS011;31519;45.408;10.962;2023-06-04T01:11:42;13.65;;;10.02;;
45812;SDS011;31519;45.408;10.962;2023-06-04T01:14:10;16.13;;;9.63;;
45812;SDS011;31519;45.408;10.962;2023-06-04T01:16:58;19.67;;;9.77;;
45812;SDS011;31519;45.408;10.962;2023-06-04T01:25:39;22.90;;;9.35;;
45812;SDS011;31519;45.408;10.962;2023-06-04T01:28:13;13.45;;;9.18;;
45812;SDS011;31519;45.408;10.962;2023-06-04T01:30:44;16.23;;;9.65;;
45812;SDS011;31519;45.408;10.962;2023-06-04T01:33:15;19.77;;;9.23;;
45812;SDS011;31519;45.408;10.962;2023-06-04T01:35:45;17.75;;;9.88;;
45812;SDS011;31519;45.408;10.962;2023-06-04T01:38:13;13.18;;;9.55;;
45812;SDS011;31519;45.408;10.962;2023-06-04T01:40:41;16.55;;;10.00;;
45812;SDS011;31519;45.408;10.962;2023-06-04T01:43:10;20.15;;;9.52;;
45812;SDS011;31519;45.408;10.962;2023-06-04T01:45:38;16.60;;;9.90;;
45812;SDS011;31519;45.408;10.962;2023-06-04T01:48:06;12.25;;;9.75;;
45812;SDS011;31519;45.408;10.962;2023-06-04T01:50:35;11.10;;;9.32;;
45812;SDS011;31519;45.408;10.962;2023-06-04T01:53:03;11.80;;;9.98;;
45812;SDS011;31519;45.408;10.962;2023-06-04T01:55:31;16.30;;;9.98;;
45812;SDS011;31519;45.408;10.962;2023-06-04T01:58:01;15.75;;;10.07;;
45812;SDS011;31519;45.408;10.962;2023-06-04T02:00:29;18.40;;;10.65;;
45812;SDS011;31519;45.408;10.962;2023-06-04T02:02:57;24.60;;;10.98;;
45812;SDS011;31519;45.408;10.962;2023-06-04T02:05:27;21.10;;;11.40;;
45812;SDS011;31519;45.408;10.962;2023-06-04T02:07:55;20.38;;;10.82;;
45812;SDS011;31519;45.408;10.962;2023-06-04T02:10:25;20.33;;;11.20;;
45812;SDS011;31519;45.408;10.962;2023-06-04T02:12:54;19.80;;;10.55;;
45812;SDS011;31519;45.408;10.962;2023-06-04T02:15:23;17.98;;;10.40;;
45812;SDS011;31519;45.408;10.962;2023-06-04T02:17:54;12.43;;;10.10;;
45812;SDS011;31519;45.408;10.962;2023-06-04T02:20:27;14.05;;;9.32;;
45812;SDS011;31519;45.408;10.962;2023-06-04T02:22:55;12.40;;;9.98;;
45812;SDS011;31519;45.408;10.962;2023-06-04T02:25:26;12.75;;;9.60;;
45812;SDS011;31519;45.408;10.962;2023-06-04T02:27:54;15.85;;;11.15;;
45812;SDS011;31519;45.408;10.962;2023-06-04T02:30:22;16.90;;;10.35;;
45812;SDS011;31519;45.408;10.962;2023-06-04T02:32:51;16.65;;;10.10;;
45812;SDS011;31519;45.408;10.962;2023-06-04T02:35:20;13.23;;;9.10;;
45812;SDS011;31519;45.408;10.962;2023-06-04T02:37:51;9.02;;;6.72;;
45812;SDS011;31519;45.408;10.962;2023-06-04T02:40:19;7.50;;;5.28;;
45812;SDS011;31519;45.408;10.962;2023-06-04T02:42:47;8.40;;;5.93;;
45812;SDS011;31519;45.408;10.962;2023-06-04T02:45:15;10.98;;;5.70;;
45812;SDS011;31519;45.408;10.962;2023-06-04T02:47:42;8.73;;;5.40;;
45812;SDS011;31519;45.408;10.962;2023-06-04T02:50:11;8.32;;;5.32;;
45812;SDS011;31519;45.408;10.962;2023-06-04T02:52:41;10.05;;;4.80;;
45812;SDS011;31519;45.408;10.962;2023-06-04T02:55:11;11.68;;;4.97;;
45812;SDS011;31519;45.408;10.962;2023-06-04T02:57:42;6.90;;;4.68;;
45812;SDS011;31519;45.408;10.962;2023-06-04T03:00:11;7.78;;;4.57;;
45812;SDS011;31519;45.408;10.962;2023-06-04T03:02:45;14.88;;;5.13;;
45812;SDS011;31519;45.408;10.962;2023-06-04T03:05:16;10.38;;;4.97;;
45812;SDS011;31519;45.408;10.962;2023-06-04T03:07:46;9.75;;;4.47;;
45812;SDS011;31519;45.408;10.962;2023-06-04T03:10:15;7.22;;;5.40;;
45812;SDS011;31519;45.408;10.962;2023-06-04T03:12:43;7.53;;;4.60;;
45812;SDS011;31519;45.408;10.962;2023-06-04T03:15:12;7.10;;;4.88;;
45812;SDS011;31519;45.408;10.962;2023-06-04T03:17:40;6.43;;;5.13;;
45812;SDS011;31519;45.408;10.962;2023-06-04T03:20:09;10.80;;;5.93;;
45812;SDS011;31519;45.408;10.962;2023-06-04T03:22:38;5.57;;;5.03;;
45812;SDS011;31519;45.408;10.962;2023-06-04T03:25:06;6.18;;;4.53;;
45812;SDS011;31519;45.408;10.962;2023-06-04T03:27:34;6.07;;;4.70;;
45812;SDS011;31519;45.408;10.962;2023-06-04T03:30:06;9.63;;;4.57;;
45812;SDS011;31519;45.408;10.962;2023-06-04T03:32:43;6.63;;;4.90;;
45812;SDS011;31519;45.408;10.962;2023-06-04T03:35:14;11.75;;;5.65;;
45812;SDS011;31519;45.408;10.962;2023-06-04T03:37:42;5.80;;;4.75;;
45812;SDS011;31519;45.408;10.962;2023-06-04T03:40:11;5.60;;;4.72;;
45812;SDS011;31519;45.408;10.962;2023-06-04T03:42:43;6.90;;;4.80;;
45812;SDS011;31519;45.408;10.962;2023-06-04T03:45:13;8.50;;;4.43;;
45812;SDS011;31519;45.408;10.962;2023-06-04T03:47:41;12.00;;;4.82;;
45812;SDS011;31519;45.408;10.962;2023-06-04T03:50:10;7.63;;;5.47;;
45812;SDS011;31519;45.408;10.962;2023-06-04T03:52:38;5.85;;;5.05;;
45812;SDS011;31519;45.408;10.962;2023-06-04T03:55:08;10.07;;;5.05;;
45812;SDS011;31519;45.408;10.962;2023-06-04T03:57:36;7.28;;;4.82;;
45812;SDS011;31519;45.408;10.962;2023-06-04T04:00:07;5.22;;;4.68;;
45812;SDS011;31519;45.408;10.962;2023-06-04T04:02:40;7.72;;;4.72;;
45812;SDS011;31519;45.408;10.962;2023-06-04T04:05:17;7.00;;;5.32;;
45812;SDS011;31519;45.408;10.962;2023-06-04T04:07:47;9.88;;;5.03;;
45812;SDS011;31519;45.408;10.962;2023-06-04T04:10:20;5.60;;;4.97;;
45812;SDS011;31519;45.408;10.962;2023-06-04T04:12:48;7.30;;;5.40;;
45812;SDS011;31519;45.408;10.962;2023-06-04T04:15:18;6.55;;;4.85;;
45812;SDS011;31519;45.408;10.962;2023-06-04T04:17:47;5.10;;;4.60;;
45812;SDS011;31519;45.408;10.962;2023-06-04T04:20:16;5.93;;;4.28;;
45812;SDS011;31519;45.408;10.962;2023-06-04T04:22:49;9.45;;;5.07;;
45812;SDS011;31519;45.408;10.962;2023-06-04T04:25:20;6.15;;;4.80;;
45812;SDS011;31519;45.408;10.962;2023-06-04T04:27:48;8.40;;;4.72;;
45812;SDS011;31519;45.408;10.962;2023-06-04T04:30:16;7.60;;;5.13;;
45812;SDS011;31519;45.408;10.962;2023-06-04T04:32:48;8.25;;;4.80;;
45812;SDS011;31519;45.408;10.962;2023-06-04T04:35:23;5.00;;;4.10;;
45812;SDS011;31519;45.408;10.962;2023-06-04T04:37:55;7.90;;;4.57;;
45812;SDS011;31519;45.408;10.962;2023-06-04T04:40:24;6.65;;;4.90;;
45812;SDS011;31519;45.408;10.962;2023-06-04T04:42:55;8.40;;;5.00;;
45812;SDS011;31519;45.408;10.962;2023-06-04T04:45:23;6.05;;;5.07;;
45812;SDS011;31519;45.408;10.962;2023-06-04T04:47:55;7.10;;;4.68;;
45812;SDS011;31519;45.408;10.962;2023-06-04T04:50:24;7.80;;;4.97;;
45812;SDS011;31519;45.408;10.962;2023-06-04T04:52:52;10.63;;;5.15;;
45812;SDS011;31519;45.408;10.962;2023-06-04T04:55:21;5.70;;;4.63;;
45812;SDS011;31519;45.408;10.962;2023-06-04T04:57:50;7.68;;;4.50;;
45812;SDS011;31519;45.408;10.962;2023-06-04T05:00:19;10.77;;;4.95;;
45812;SDS011;31519;45.408;10.962;2023-06-04T05:02:52;5.83;;;4.37;;
45812;SDS011;31519;45.408;10.962;2023-06-04T05:05:20;4.78;;;3.80;;
45812;SDS011;31519;45.408;10.962;2023-06-04T05:07:50;8.10;;;4.78;;
45812;SDS011;31519;45.408;10.962;2023-06-04T05:10:21;7.97;;;4.45;;
45812;SDS011;31519;45.408;10.962;2023-06-04T05:12:53;10.10;;;4.38;;
45812;SDS011;31519;45.408;10.962;2023-06-04T05:15:33;5.28;;;4.00;;
45812;SDS011;31519;45.408;10.962;2023-06-04T05:18:02;6.75;;;4.00;;
45812;SDS011;31519;45.408;10.962;2023-06-04T05:23:08;7.13;;;4.43;;
45812;SDS011;31519;45.408;10.962;2023-06-04T05:25:37;5.95;;;4.60;;
45812;SDS011;31519;45.408;10.962;2023-06-04T05:28:06;10.25;;;4.68;;
45812;SDS011;31519;45.408;10.962;2023-06-04T05:30:35;6.43;;;4.85;;
45812;SDS011;31519;45.408;10.962;2023-06-04T05:33:03;8.82;;;4.05;;
45812;SDS011;31519;45.408;10.962;2023-06-04T05:35:32;6.30;;;4.30;;
45812;SDS011;31519;45.408;10.962;2023-06-04T05:38:00;15.05;;;3.83;;
45812;SDS011;31519;45.408;10.962;2023-06-04T05:40:30;3.83;;;3.45;;
45812;SDS011;31519;45.408;10.962;2023-06-04T05:42:58;12.93;;;3.80;;
45812;SDS011;31519;45.408;10.962;2023-06-04T05:45:27;3.95;;;3.40;;
45812;SDS011;31519;45.408;10.962;2023-06-04T05:47:55;3.50;;;3.08;;
45812;SDS011;31519;45.408;10.962;2023-06-04T05:50:26;5.05;;;3.20;;
45812;SDS011;31519;45.408;10.962;2023-06-04T05:52:54;7.60;;;3.97;;
45812;SDS011;31519;45.408;10.962;2023-06-04T05:55:23;4.97;;;3.78;;
45812;SDS011;31519;45.408;10.962;2023-06-04T05:57:52;8.77;;;3.97;;
45812;SDS011;31519;45.408;10.962;2023-06-04T06:00:21;6.97;;;3.67;;
45812;SDS011;31519;45.408;10.962;2023-06-04T06:02:50;4.07;;;3.65;;
45812;SDS011;31519;45.408;10.962;2023-06-04T06:05:34;6.60;;;3.90;;
45812;SDS011;31519;45.408;10.962;2023-06-04T06:08:02;5.30;;;3.78;;
45812;SDS011;31519;45.408;10.962;2023-06-04T06:10:31;4.47;;;3.72;;
45812;SDS011;31519;45.408;10.962;2023-06-04T06:12:59;9.35;;;3.95;;
45812;SDS011;31519;45.408;10.962;2023-06-04T06:15:30;13.18;;;3.47;;
45812;SDS011;31519;45.408;10.962;2023-06-04T06:17:58;5.53;;;3.67;;
45812;SDS011;31519;45.408;10.962;2023-06-04T06:20:27;4.97;;;3.70;;
45812;SDS011;31519;45.408;10.962;2023-06-04T06:22:57;9.40;;;3.70;;
45812;SDS011;31519;45.408;10.962;2023-06-04T06:25:26;5.43;;;3.67;;
45812;SDS011;31519;45.408;10.962;2023-06-04T06:28:03;8.40;;;3.78;;
45812;SDS011;31519;45.408;10.962;2023-06-04T06:30:32;4.93;;;4.00;;
45812;SDS011;31519;45.408;10.962;2023-06-04T06:33:00;7.63;;;4.07;;
45812;SDS011;31519;45.408;10.962;2023-06-04T06:35:28;6.22;;;3.60;;
45812;SDS011;31519;45.408;10.962;2023-06-04T06:37:57;5.18;;;3.45;;
45812;SDS011;31519;45.408;10.962;2023-06-04T06:40:25;7.07;;;3.88;;
45812;SDS011;31519;45.408;10.962;2023-06-04T06:42:53;9.60;;;4.82;;
45812;SDS011;31519;45.408;10.962;2023-06-04T06:45:22;4.47;;;3.88;;
45812;SDS011;31519;45.408;10.962;2023-06-04T06:47:50;5.40;;;4.45;;
45812;SDS011;31519;45.408;10.962;2023-06-04T06:50:19;8.52;;;4.50;;
45812;SDS011;31519;45.408;10.962;2023-06-04T06:52:47;5.20;;;3.95;;
45812;SDS011;31519;45.408;10.962;2023-06-04T06:55:16;7.32;;;4.22;;
45812;SDS011;31519;45.408;10.962;2023-06-04T06:57:44;6.30;;;4.55;;
45812;SDS011;31519;45.408;10.962;2023-06-04T07:00:13;4.82;;;4.25;;
45812;SDS011;31519;45.408;10.962;2023-06-04T07:02:41;6.93;;;4.28;;
45812;SDS011;31519;45.408;10.962;2023-06-04T07:05:10;9.90;;;4.22;;
45812;SDS011;31519;45.408;10.962;2023-06-04T07:07:39;9.23;;;4.47;;
45812;SDS011;31519;45.408;10.962;2023-06-04T07:10:08;8.15;;;4.28;;
45812;SDS011;31519;45.408;10.962;2023-06-04T07:12:37;6.60;;;4.18;;
45812;SDS011;31519;45.408;10.962;2023-06-04T07:15:10;5.25;;;4.20;;
45812;SDS011;31519;45.408;10.962;2023-06-04T07:17:38;4.93;;;3.92;;
45812;SDS011;31519;45.408;10.962;2023-06-04T07:20:06;8.48;;;4.55;;
45812;SDS011;31519;45.408;10.962;2023-06-04T07:22:36;6.95;;;4.53;;
45812;SDS011;31519;45.408;10.962;2023-06-04T07:25:04;6.88;;;3.97;;
45812;SDS011;31519;45.408;10.962;2023-06-04T07:27:33;7.55;;;3.85;;
45812;SDS011;31519;45.408;10.962;2023-06-04T07:30:02;5.13;;;4.13;;
45812;SDS011;31519;45.408;10.962;2023-06-04T07:32:31;6.10;;;4.03;;
45812;SDS011;31519;45.408;10.962;2023-06-04T07:34:59;6.30;;;4.00;;
45812;SDS011;31519;45.408;10.962;2023-06-04T07:37:27;14.43;;;4.25;;
45812;SDS011;31519;45.408;10.962;2023-06-04T07:39:55;5.53;;;3.70;;
45812;SDS011;31519;45.408;10.962;2023-06-04T07:42:23;7.95;;;3.97;;
45812;SDS011;31519;45.408;10.962;2023-06-04T07:44:52;5.30;;;3.72;;
45812;SDS011;31519;45.408;10.962;2023-06-04T07:47:20;8.65;;;3.88;;
45812;SDS011;31519;45.408;10.962;2023-06-04T07:49:48;11.05;;;3.60;;
45812;SDS011;31519;45.408;10.962;2023-06-04T07:52:29;4.32;;;3.85;;
45812;SDS011;31519;45.408;10.962;2023-06-04T07:54:58;7.07;;;3.85;;
45812;SDS011;31519;45.408;10.962;2023-06-04T07:57:27;8.32;;;3.83;;
45812;SDS011;31519;45.408;10.962;2023-06-04T07:59:56;6.50;;;4.40;;
45812;SDS011;31519;45.408;10.962;2023-06-04T08:02:24;4.47;;;3.33;;
45812;SDS011;31519;45.408;10.962;2023-06-04T08:04:53;9.32;;;4.45;;
45812;SDS011;31519;45.408;10.962;2023-06-04T08:07:21;5.15;;;3.47;;
45812;SDS011;31519;45.408;10.962;2023-06-04T08:09:50;4.95;;;3.63;;
45812;SDS011;31519;45.408;10.962;2023-06-04T08:12:19;5.45;;;3.75;;
45812;SDS011;31519;45.408;10.962;2023-06-04T08:14:48;5.35;;;3.63;;
45812;SDS011;31519;45.408;10.962;2023-06-04T08:17:18;4.22;;;3.83;;
45812;SDS011;31519;45.408;10.962;2023-06-04T08:19:46;5.93;;;3.95;;
45812;SDS011;31519;45.408;10.962;2023-06-04T08:22:14;3.47;;;3.15;;
45812;SDS011;31519;45.408;10.962;2023-06-04T08:24:44;7.95;;;3.88;;
45812;SDS011;31519;45.408;10.962;2023-06-04T08:27:12;5.40;;;3.78;;
45812;SDS011;31519;45.408;10.962;2023-06-04T08:29:41;4.80;;;3.83;;
45812;SDS011;31519;45.408;10.962;2023-06-04T08:32:09;9.23;;;4.20;;
45812;SDS011;31519;45.408;10.962;2023-06-04T08:34:37;4.60;;;4.20;;
45812;SDS011;31519;45.408;10.962;2023-06-04T08:37:05;6.10;;;3.33;;
45812;SDS011;31519;45.408;10.962;2023-06-04T08:39:34;4.35;;;3.65;;
45812;SDS011;31519;45.408;10.962;2023-06-04T08:42:05;5.53;;;3.83;;
45812;SDS011;31519;45.408;10.962;2023-06-04T08:44:37;5.63;;;3.90;;
45812;SDS011;31519;45.408;10.962;2023-06-04T08:47:06;5.82;;;3.53;;
45812;SDS011;31519;45.408;10.962;2023-06-04T08:49:36;4.10;;;3.20;;
45812;SDS011;31519;45.408;10.962;2023-06-04T08:52:04;4.90;;;3.45;;
45812;SDS011;31519;45.408;10.962;2023-06-04T08:54:34;5.43;;;3.90;;
45812;SDS011;31519;45.408;10.962;2023-06-04T08:57:02;7.53;;;4.03;;
45812;SDS011;31519;45.408;10.962;2023-06-04T08:59:31;4.50;;;3.78;;
45812;SDS011;31519;45.408;10.962;2023-06-04T09:02:00;7.22;;;4.65;;
45812;SDS011;31519;45.408;10.962;2023-06-04T09:04:29;7.63;;;4.38;;
45812;SDS011;31519;45.408;10.962;2023-06-04T09:07:00;5.32;;;3.70;;
45812;SDS011;31519;45.408;10.962;2023-06-04T09:09:30;10.52;;;4.07;;
45812;SDS011;31519;45.408;10.962;2023-06-04T09:12:05;11.63;;;4.20;;
45812;SDS011;31519;45.408;10.962;2023-06-04T09:14:38;5.88;;;3.78;;
45812;SDS011;31519;45.408;10.962;2023-06-04T09:17:06;7.15;;;5.10;;
45812;SDS011;31519;45.408;10.962;2023-06-04T09:19:34;9.00;;;3.88;;
45812;SDS011;31519;45.408;10.962;2023-06-04T09:22:02;5.18;;;3.97;;
45812;SDS011;31519;45.408;10.962;2023-06-04T09:24:44;9.27;;;3.97;;
45812;SDS011;31519;45.408;10.962;2023-06-04T09:27:17;6.07;;;3.60;;
45812;SDS011;31519;45.408;10.962;2023-06-04T09:29:50;5.30;;;4.22;;
45812;SDS011;31519;45.408;10.962;2023-06-04T09:32:20;9.07;;;4.80;;
45812;SDS011;31519;45.408;10.962;2023-06-04T09:34:50;5.20;;;3.72;;
45812;SDS011;31519;45.408;10.962;2023-06-04T09:37:20;6.45;;;4.05;;
45812;SDS011;31519;45.408;10.962;2023-06-04T09:39:53;8.38;;;3.47;;
45812;SDS011;31519;45.408;10.962;2023-06-04T09:42:22;7.78;;;3.70;;
45812;SDS011;31519;45.408;10.962;2023-06-04T09:44:51;4.97;;;3.67;;
45812;SDS011;31519;45.408;10.962;2023-06-04T09:47:19;6.70;;;3.95;;
45812;SDS011;31519;45.408;10.962;2023-06-04T09:49:48;5.40;;;3.78;;
45812;SDS011;31519;45.408;10.962;2023-06-04T09:52:18;4.97;;;3.65;;
45812;SDS011;31519;45.408;10.962;2023-06-04T09:54:49;9.70;;;4.20;;
45812;SDS011;31519;45.408;10.962;2023-06-04T09:57:17;9.00;;;4.40;;
45812;SDS011;31519;45.408;10.962;2023-06-04T09:59:51;5.82;;;4.22;;
45812;SDS011;31519;45.408;10.962;2023-06-04T10:02:21;7.07;;;3.90;;
45812;SDS011;31519;45.408;10.962;2023-06-04T10:04:54;15.55;;;6.05;;
45812;SDS011;31519;45.408;10.962;2023-06-04T10:07:26;8.45;;;4.70;;
45812;SDS011;31519;45.408;10.962;2023-06-04T10:09:54;7.15;;;4.75;;
45812;SDS011;31519;45.408;10.962;2023-06-04T10:12:25;7.82;;;3.85;;
45812;SDS011;31519;45.408;10.962;2023-06-04T10:14:59;4.13;;;3.63;;
45812;SDS011;31519;45.408;10.962;2023-06-04T10:17:38;4.82;;;3.70;;
45812;SDS011;31519;45.408;10.962;2023-06-04T10:20:07;7.55;;;4.40;;
45812;SDS011;31519;45.408;10.962;2023-06-04T10:22:37;7.20;;;3.70;;
45812;SDS011;31519;45.408;10.962;2023-06-04T10:25:06;6.28;;;3.78;;
45812;SDS011;31519;45.408;10.962;2023-06-04T10:27:36;12.40;;;4.97;;
45812;SDS011;31519;45.408;10.962;2023-06-04T10:30:05;4.65;;;3.60;;
45812;SDS011;31519;45.408;10.962;2023-06-04T10:32:35;5.32;;;3.08;;
45812;SDS011;31519;45.408;10.962;2023-06-04T10:35:04;7.32;;;3.45;;
45812;SDS011;31519;45.408;10.962;2023-06-04T10:37:35;6.85;;;3.50;;
45812;SDS011;31519;45.408;10.962;2023-06-04T10:40:04;3.83;;;3.35;;
45812;SDS011;31519;45.408;10.962;2023-06-04T10:42:40;6.20;;;3.97;;
45812;SDS011;31519;45.408;10.962;2023-06-04T10:45:10;6.65;;;4.05;;
45812;SDS011;31519;45.408;10.962;2023-06-04T10:47:39;6.60;;;3.60;;
45812;SDS011;31519;45.408;10.962;2023-06-04T10:50:10;4.32;;;3.50;;
45812;SDS011;31519;45.408;10.962;2023-06-04T10:52:52;9.05;;;5.00;;
45812;SDS011;31519;45.408;10.962;2023-06-04T10:55:21;8.40;;;4.68;;
45812;SDS011;31519;45.408;10.962;2023-06-04T10:57:53;15.90;;;9.98;;
45812;SDS011;31519;45.408;10.962;2023-06-04T11:00:34;6.15;;;4.60;;
45812;SDS011;31519;45.408;10.962;2023-06-04T11:03:04;6.57;;;4.40;;
45812;SDS011;31519;45.408;10.962;2023-06-04T11:05:37;9.85;;;3.40;;
45812;SDS011;31519;45.408;10.962;2023-06-04T11:08:07;5.93;;;3.72;;
45812;SDS011;31519;45.408;10.962;2023-06-04T11:10:37;4.78;;;3.17;;
45812;SDS011;31519;45.408;10.962;2023-06-04T11:13:07;10.32;;;3.67;;
45812;SDS011;31519;45.408;10.962;2023-06-04T11:15:43;4.40;;;3.25;;
45812;SDS011;31519;45.408;10.962;2023-06-04T11:18:13;5.80;;;3.55;;
45812;SDS011;31519;45.408;10.962;2023-06-04T11:20:49;11.05;;;4.07;;
45812;SDS011;31519;45.408;10.962;2023-06-04T11:23:26;4.18;;;3.30;;
45812;SDS011;31519;45.408;10.962;2023-06-04T11:25:55;4.22;;;2.92;;
45812;SDS011;31519;45.408;10.962;2023-06-04T11:28:24;3.92;;;3.15;;
45812;SDS011;31519;45.408;10.962;2023-06-04T11:30:59;5.95;;;3.65;;
45812;SDS011;31519;45.408;10.962;2023-06-04T11:33:43;4.80;;;3.47;;
45812;SDS011;31519;45.408;10.962;2023-06-04T11:36:28;11.57;;;3.25;;
45812;SDS011;31519;45.408;10.962;2023-06-04T11:38:58;6.38;;;3.45;;
45812;SDS011;31519;45.408;10.962;2023-06-04T11:41:29;5.53;;;3.20;;
45812;SDS011;31519;45.408;10.962;2023-06-04T11:44:01;4.57;;;3.20;;
45812;SDS011;31519;45.408;10.962;2023-06-04T11:49:00;4.07;;;3.10;;
45812;SDS011;31519;45.408;10.962;2023-06-04T11:51:30;6.97;;;3.78;;
45812;SDS011;31519;45.408;10.962;2023-06-04T11:54:01;6.65;;;3.63;;
45812;SDS011;31519;45.408;10.962;2023-06-04T11:56:30;8.98;;;4.50;;
45812;SDS011;31519;45.408;10.962;2023-06-04T11:58:59;9.77;;;3.60;;
45812;SDS011;31519;45.408;10.962;2023-06-04T12:01:27;7.88;;;4.18;;
45812;SDS011;31519;45.408;10.962;2023-06-04T12:03:58;6.30;;;4.38;;
45812;SDS011;31519;45.408;10.962;2023-06-04T12:06:26;4.57;;;4.03;;
45812;SDS011;31519;45.408;10.962;2023-06-04T12:08:55;5.03;;;3.42;;
45812;SDS011;31519;45.408;10.962;2023-06-04T12:14:05;6.38;;;2.95;;
45812;SDS011;31519;45.408;10.962;2023-06-04T12:16:35;5.18;;;2.95;;
45812;SDS011;31519;45.408;10.962;2023-06-04T12:19:06;4.03;;;3.20;;
45812;SDS011;31519;45.408;10.962;2023-06-04T12:21:39;6.40;;;3.55;;
45812;SDS011;31519;45.408;10.962;2023-06-04T12:24:13;4.75;;;3.60;;
45812;SDS011;31519;45.408;10.962;2023-06-04T12:26:43;8.43;;;3.90;;
45812;SDS011;31519;45.408;10.962;2023-06-04T12:29:17;6.30;;;3.35;;
45812;SDS011;31519;45.408;10.962;2023-06-04T12:31:48;5.13;;;3.17;;
45812;SDS011;31519;45.408;10.962;2023-06-04T12:34:16;6.00;;;3.92;;
45812;SDS011;31519;45.408;10.962;2023-06-04T12:36:45;3.65;;;3.30;;
45812;SDS011;31519;45.408;10.962;2023-06-04T12:39:14;7.35;;;3.33;;
45812;SDS011;31519;45.408;10.962;2023-06-04T12:41:45;3.67;;;3.17;;
45812;SDS011;31519;45.408;10.962;2023-06-04T12:44:14;6.72;;;3.72;;
45812;SDS011;31519;45.408;10.962;2023-06-04T12:46:43;6.20;;;3.40;;
45812;SDS011;31519;45.408;10.962;2023-06-04T12:49:11;4.68;;;3.55;;
45812;SDS011;31519;45.408;10.962;2023-06-04T12:51:40;8.70;;;4.30;;
45812;SDS011;31519;45.408;10.962;2023-06-04T12:54:09;5.32;;;3.53;;
45812;SDS011;31519;45.408;10.962;2023-06-04T12:56:39;7.55;;;4.25;;
45812;SDS011;31519;45.408;10.962;2023-06-04T12:59:11;9.35;;;3.85;;
45812;SDS011;31519;45.408;10.962;2023-06-04T13:01:40;8.65;;;3.28;;
45812;SDS011;31519;45.408;10.962;2023-06-04T13:04:08;7.50;;;3.40;;
45812;SDS011;31519;45.408;10.962;2023-06-04T13:06:37;7.05;;;4.00;;
45812;SDS011;31519;45.408;10.962;2023-06-04T13:09:06;10.18;;;4.00;;
45812;SDS011;31519;45.408;10.962;2023-06-04T13:11:40;6.63;;;4.38;;
45812;SDS011;31519;45.408;10.962;2023-06-04T13:14:10;7.95;;;4.30;;
45812;SDS011;31519;45.408;10.962;2023-06-04T13:16:39;8.48;;;4.55;;
45812;SDS011;31519;45.408;10.962;2023-06-04T13:19:08;3.97;;;3.67;;
45812;SDS011;31519;45.408;10.962;2023-06-04T13:21:37;5.13;;;4.05;;
45812;SDS011;31519;45.408;10.962;2023-06-04T13:24:05;4.85;;;3.63;;
45812;SDS011;31519;45.408;10.962;2023-06-04T13:26:36;7.97;;;3.85;;
45812;SDS011;31519;45.408;10.962;2023-06-04T13:29:06;7.45;;;4.53;;
45812;SDS011;31519;45.408;10.962;2023-06-04T13:31:36;7.63;;;4.18;;
45812;SDS011;31519;45.408;10.962;2023-06-04T13:34:07;6.50;;;4.05;;
45812;SDS011;31519;45.408;10.962;2023-06-04T13:36:54;7.85;;;3.90;;
45812;SDS011;31519;45.408;10.962;2023-06-04T13:39:23;7.45;;;4.75;;
45812;SDS011;31519;45.408;10.962;2023-06-04T13:41:51;7.18;;;4.65;;
45812;SDS011;31519;45.408;10.962;2023-06-04T13:44:20;6.70;;;3.40;;
45812;SDS011;31519;45.408;10.962;2023-06-04T13:46:54;4.95;;;4.22;;
45812;SDS011;31519;45.408;10.962;2023-06-04T13:49:22;7.35;;;3.90;;
45812;SDS011;31519;45.408;10.962;2023-06-04T13:51:50;5.82;;;3.92;;
45812;SDS011;31519;45.408;10.962;2023-06-04T13:54:18;6.15;;;3.83;;
45812;SDS011;31519;45.408;10.962;2023-06-04T13:56:48;7.43;;;3.83;;
45812;SDS011;31519;45.408;10.962;2023-06-04T13:59:16;6.60;;;4.15;;
45812;SDS011;31519;45.408;10.962;2023-06-04T14:01:45;6.03;;;3.90;;
45812;SDS011;31519;45.408;10.962;2023-06-04T14:04:13;8.52;;;3.92;;
45812;SDS011;31519;45.408;10.962;2023-06-04T14:06:41;12.95;;;4.13;;
45812;SDS011;31519;45.408;10.962;2023-06-04T14:09:09;6.80;;;4.70;;
45812;SDS011;31519;45.408;10.962;2023-06-04T14:11:40;6.65;;;3.78;;
45812;SDS011;31519;45.408;10.962;2023-06-04T14:14:08;7.22;;;4.20;;
45812;SDS011;31519;45.408;10.962;2023-06-04T14:16:38;7.70;;;4.20;;
45812;SDS011;31519;45.408;10.962;2023-06-04T14:19:06;7.13;;;3.95;;
45812;SDS011;31519;45.408;10.962;2023-06-04T14:21:34;11.63;;;4.50;;
45812;SDS011;31519;45.408;10.962;2023-06-04T14:24:03;5.07;;;3.97;;
45812;SDS011;31519;45.408;10.962;2023-06-04T14:26:32;7.50;;;4.07;;
45812;SDS011;31519;45.408;10.962;2023-06-04T14:29:01;9.50;;;3.92;;
45812;SDS011;31519;45.408;10.962;2023-06-04T14:31:30;6.20;;;3.67;;
45812;SDS011;31519;45.408;10.962;2023-06-04T14:33:58;6.72;;;4.32;;
45812;SDS011;31519;45.408;10.962;2023-06-04T14:36:26;5.93;;;4.22;;
45812;SDS011;31519;45.408;10.962;2023-06-04T14:38:55;7.90;;;4.22;;
45812;SDS011;31519;45.408;10.962;2023-06-04T14:41:24;9.95;;;4.88;;
45812;SDS011;31519;45.408;10.962;2023-06-04T14:43:52;6.07;;;4.75;;
45812;SDS011;31519;45.408;10.962;2023-06-04T14:46:21;5.88;;;4.30;;
45812;SDS011;31519;45.408;10.962;2023-06-04T14:48:49;8.32;;;3.70;;
45812;SDS011;31519;45.408;10.962;2023-06-04T14:51:17;5.95;;;4.40;;
45812;SDS011;31519;45.408;10.962;2023-06-04T14:53:49;7.93;;;4.82;;
45812;SDS011;31519;45.408;10.962;2023-06-04T14:56:17;6.72;;;4.25;;
45812;SDS011;31519;45.408;10.962;2023-06-04T14:58:45;6.53;;;4.75;;
45812;SDS011;31519;45.408;10.962;2023-06-04T15:01:14;8.18;;;5.25;;
45812;SDS011;31519;45.408;10.962;2023-06-04T15:03:43;6.13;;;4.38;;